»·PEaware :: N992W KSMX-KVNY

N992W :: KSMX-KVNY

FLIGHT INFORMATION

Flight Status: Arrived
Operator: Privately registered:
United States
More flights under this callsign
Pilot: Joaquin J. (6581)
Aircraft: PIPER PA-31/31P NAVAJO CHIEFTAIN
(PA31)
More flights by this aircraft type
Origin: KSMX Santa Maria Pub/Capt Hancock
United States
Destination: KVNY Van Nuys
United States
More flights between these airports :: More routes between these airports
Route: RZS V186 FIM
File this flight plan on PilotEdge
Remarks: Enroute Holds requested
Altitude:
(Current/Filed)
7,000ft
Speed:
(Current/Filed)
180kts
Departed: 06-Jan-23 08:09 PM
Arrived: 06-Jan-23 08:55 PM
Distance/Time
Traveled:
106nm/0:46
Distance/Time
To Go:
Arrived

Flight Plot

Page will automatically refresh every two minutes.


Map Options




Map Legend


Flown Route
Filed Route
Departure Airport
Arrival Airport
Navaid (VOR, NDB)
Fix

Horizontal Profiles

Position Reports

Time Latitude Longitude Heading Altitude Ground
Speed
06-Jan-23 19:41 34.892056 -120.455717 192 254ft 0kts
06-Jan-23 19:42 34.892056 -120.455717 192 254ft 0kts
06-Jan-23 19:43 34.892056 -120.455717 192 254ft 0kts
06-Jan-23 19:44 34.892056 -120.455717 192 254ft 0kts
06-Jan-23 19:45 34.892056 -120.455717 192 254ft 0kts
06-Jan-23 19:46 34.892056 -120.455717 192 254ft 0kts
06-Jan-23 19:47 34.892056 -120.455717 192 254ft 0kts
06-Jan-23 19:48 34.892056 -120.455717 192 254ft 0kts
06-Jan-23 19:49 34.892056 -120.455717 192 254ft 0kts
06-Jan-23 19:50 34.892056 -120.455717 192 254ft 0kts
06-Jan-23 19:51 34.892056 -120.455717 192 254ft 0kts
06-Jan-23 19:52 34.892056 -120.455717 192 254ft 0kts
06-Jan-23 19:53 34.892056 -120.455717 192 254ft 0kts
06-Jan-23 19:54 34.892056 -120.455717 192 254ft 0kts
06-Jan-23 19:55 34.892056 -120.455717 192 254ft 0kts
06-Jan-23 19:56 34.892056 -120.455717 192 254ft 0kts
06-Jan-23 19:57 34.892056 -120.455717 192 254ft 0kts
06-Jan-23 19:58 34.892056 -120.455717 192 254ft 0kts
06-Jan-23 19:59 34.892056 -120.455717 192 254ft 0kts
06-Jan-23 20:00 34.892056 -120.455717 192 254ft 0kts
06-Jan-23 20:01 34.892056 -120.455717 192 254ft 0kts
06-Jan-23 20:02 34.892056 -120.455717 192 254ft 0kts
06-Jan-23 20:03 34.892857 -120.454884 106 252ft 12kts
06-Jan-23 20:04 34.891938 -120.452845 136 260ft 13kts
06-Jan-23 20:05 34.891805 -120.446666 56 262ft 16kts
06-Jan-23 20:05 34.891993 -120.446442 358 262ft 0kts
06-Jan-23 20:07 34.891993 -120.446442 358 262ft 0kts
06-Jan-23 20:08 34.892499 -120.445842 30 263ft 8kts
06-Jan-23 20:09 34.904205 -120.458938 317 476ft 96kts
06-Jan-23 20:09 34.920778 -120.457564 95 1176ft 101kts
06-Jan-23 20:10 34.897186 -120.452898 195 2245ft 95kts
06-Jan-23 20:12 34.867872 -120.450203 146 3804ft 95kts
06-Jan-23 20:13 34.837405 -120.427483 149 4455ft 136kts
06-Jan-23 20:13 34.810933 -120.406543 148 5290ft 136kts
06-Jan-23 20:14 34.779250 -120.380647 148 6294ft 138kts
06-Jan-23 20:15 34.745681 -120.352962 146 6919ft 161kts
06-Jan-23 20:16 34.707577 -120.321814 148 6912ft 162kts
06-Jan-23 20:18 34.664500 -120.286796 147 6913ft 158kts
06-Jan-23 20:18 34.644788 -120.250604 110 6933ft 160kts
06-Jan-23 20:19 34.630761 -120.199024 110 6936ft 162kts
06-Jan-23 20:20 34.616050 -120.146072 110 6939ft 169kts
06-Jan-23 20:21 34.600628 -120.091271 110 6941ft 173kts
06-Jan-23 20:22 34.584940 -120.035840 110 6943ft 174kts
06-Jan-23 20:23 34.569148 -119.980103 110 6946ft 175kts
06-Jan-23 20:24 34.553394 -119.924368 110 6944ft 174kts
06-Jan-23 20:25 34.537565 -119.868693 110 6944ft 174kts
06-Jan-23 20:26 34.521730 -119.812986 110 6945ft 175kts
06-Jan-23 20:27 34.503224 -119.758766 124 6945ft 172kts
06-Jan-23 20:28 34.477139 -119.710228 123 6946ft 172kts
06-Jan-23 20:29 34.450623 -119.661487 124 6951ft 173kts
06-Jan-23 20:30 34.424065 -119.612564 124 6955ft 174kts
06-Jan-23 20:31 34.397550 -119.563708 124 6955ft 172kts
06-Jan-23 20:32 34.370936 -119.515117 123 6959ft 174kts
06-Jan-23 20:33 34.344123 -119.465805 123 6962ft 175kts
06-Jan-23 20:34 34.318730 -119.416494 104 6972ft 172kts
06-Jan-23 20:35 34.321097 -119.358550 84 6972ft 174kts
06-Jan-23 20:36 34.326451 -119.299895 84 6979ft 176kts
06-Jan-23 20:37 34.330799 -119.240540 85 6986ft 178kts
06-Jan-23 20:38 34.335909 -119.181311 85 6987ft 175kts
06-Jan-23 20:39 34.339590 -119.122358 86 6991ft 176kts
06-Jan-23 20:40 34.343762 -119.062970 85 6996ft 177kts
06-Jan-23 20:41 34.348456 -119.004199 83 7000ft 174kts
06-Jan-23 20:42 34.352669 -118.945817 86 6992ft 173kts
06-Jan-23 20:43 34.357471 -118.888016 90 6468ft 167kts
06-Jan-23 20:44 34.340853 -118.837837 113 5867ft 162kts
06-Jan-23 20:45 34.321497 -118.786008 114 5048ft 169kts
06-Jan-23 20:46 34.302467 -118.735806 113 4989ft 163kts
06-Jan-23 20:47 34.288956 -118.683768 80 4850ft 165kts
06-Jan-23 20:48 34.293717 -118.629969 88 4215ft 154kts
06-Jan-23 20:49 34.289734 -118.579304 102 3321ft 145kts
06-Jan-23 20:50 34.281470 -118.543651 102 2302ft 83kts
06-Jan-23 20:51 34.272660 -118.512841 112 1728ft 102kts
06-Jan-23 20:52 34.252438 -118.494337 174 1496ft 96kts
06-Jan-23 20:53 34.223885 -118.491681 173 985ft 101kts
06-Jan-23 20:54 34.206304 -118.490058 176 773ft 21kts
06-Jan-23 20:55 34.204317 -118.490955 295 767ft 0kts
06-Jan-23 20:56 34.204920 -118.491614 178 769ft 0kts
06-Jan-23 20:57 34.204920 -118.491614 178 769ft 0kts
06-Jan-23 20:58 34.204920 -118.491614 178 769ft 0kts

Navigation Log

Ident Type
Flight plan parsing failed, navigation log unavailable